Terminal Aerodrome Forecast
Issued by NWS

Home | Current Version | Previous Version | Graphics & Text | Print | Product List | Glossary On
Versions: 1 2 3 4 5 6 7 8 9 10 11 12 13 14 15
653
FTUS43 KGRB 222332
TAFCWA
TAF
KCWA 222332Z 2300/2324 20005KT P6SM -SHRA SCT005 OVC050
      TEMPO 2300/2303 5SM SHRA BKN005
     FM230600 28004KT P6SM BKN090
     FM231500 28009G14KT P6SM SCT030
     FM231700 29012G21KT P6SM SCT040
      AMD LTD TO CLD VIS AND WIND 2303/2311=

USA.gov is the U.S. government's official web portal to all federal, state and local government web resources and services.